Fire Weather Observation
Issued by NWS Grand Junction, CO

Home | Current Version | Previous Version | Text Only | Print | Product List | Glossary Off
Versions: 1 2 3 4 5 6 7 8 9 10 11 12 13 14 15 16 17 18 19 20 21 22 23 24 25 26 27 28 29 30

000
SHUS65 KGJT 102015
FWOGJT

DAILY FIRE WEATHER OBSERVATION
NATIONAL WEATHER SERVICE GRAND JUNCTION CO
212 PM MDT THU AUG 10 2017

STATE OF THE WEATHER (W)               1
DRY BULB TEMPERATURE                   87   DEGREES FAHRENHEIT
RELATIVE HUMIDITY (RH)                 27   PERCENT
LIGHTNING ACTIVITY LEVEL
  (LAL - MIDNIGHT TO 2 PM)             2
WIND DIRECTION                         270  DEGREES (C IF CALM)
WIND SPEED                             9    MPH
MAX TEMP (2 PM - 2 PM)                 90   DEGREES FAHRENHEIT
MIN TEMP (2 PM - 2 PM)                 62   DEGREES FAHRENHEIT
MAX RH (2 PM - 2 PM)                   68   PERCENT
MIN RH (2 PM - 2 PM)                   20   PERCENT
PCPN DURATION                          0.9  HOURS
PCPN AMT (2 PM - 2 PM)                 0.01 INCHES
LAL (2 PM - 2 PM)                      3

$$

METAR KGJT 101953Z 27008KT 10SM CLR 31/09 A3017 RMK AO2 SLP142
      T03060094



USA.gov is the U.S. government's official web portal to all federal, state and local government web resources and services.